createdAt,value
2023-01-22T00:01:13.491Z,-1.90
2023-01-22T00:03:41.640Z,-1.90
2023-01-22T00:06:09.899Z,-1.90
2023-01-22T00:08:37.828Z,-1.90
2023-01-22T00:11:05.758Z,-1.90
2023-01-22T00:13:33.369Z,-1.90
2023-01-22T00:16:01.092Z,-1.90
2023-01-22T00:18:28.553Z,-2.00
2023-01-22T00:20:56.131Z,-2.00
2023-01-22T00:23:24.485Z,-2.00
2023-01-22T00:26:13.004Z,-2.00
2023-01-22T00:28:44.021Z,-2.10
2023-01-22T00:31:13.183Z,-2.10
2023-01-22T00:33:43.684Z,-2.10
2023-01-22T00:36:15.270Z,-2.10
2023-01-22T00:38:42.968Z,-2.10
2023-01-22T00:41:10.939Z,-2.10
2023-01-22T00:43:41.247Z,-2.10
2023-01-22T00:46:10.644Z,-2.10
2023-01-22T00:48:39.116Z,-2.10
2023-01-22T00:51:10.565Z,-2.10
2023-01-22T00:53:38.140Z,-2.10
2023-01-22T00:56:06.161Z,-2.10
2023-01-22T00:58:34.125Z,-2.20
2023-01-22T01:01:04.613Z,-2.10
2023-01-22T01:03:35.031Z,-0.80
2023-01-22T01:06:05.674Z,-2.20
2023-01-22T01:08:39.467Z,-2.20
2023-01-22T01:11:11.126Z,-2.20
2023-01-22T01:13:41.977Z,-2.20
2023-01-22T01:16:13.841Z,-2.30
2023-01-22T01:18:41.980Z,-2.30
2023-01-22T01:21:11.911Z,-2.30
2023-01-22T01:23:40.001Z,-2.30
2023-01-22T01:26:10.053Z,-2.30
2023-01-22T01:28:40.940Z,-2.30
2023-01-22T01:31:11.515Z,-2.30
2023-01-22T01:33:39.652Z,-2.30
2023-01-22T01:36:21.317Z,-2.30
2023-01-22T01:38:55.364Z,-2.30
2023-01-22T01:41:25.549Z,-2.40
2023-01-22T01:44:11.346Z,-2.40
2023-01-22T01:46:44.225Z,-2.50
2023-01-22T01:49:24.455Z,-2.50
2023-01-22T01:51:55.297Z,-2.50
2023-01-22T01:54:22.862Z,-2.50
2023-01-22T01:56:53.480Z,-2.50
2023-01-22T01:59:22.584Z,-2.50
2023-01-22T02:01:54.591Z,-0.30
2023-01-22T02:04:23.902Z,-2.50
2023-01-22T02:06:51.382Z,-2.50
2023-01-22T02:09:19.034Z,-2.50
2023-01-22T02:11:47.092Z,-2.50
2023-01-22T02:14:18.381Z,-0.30
2023-01-22T02:16:45.947Z,-1.70
2023-01-22T02:19:13.425Z,-2.50
2023-01-22T02:21:44.758Z,-2.50
2023-01-22T02:24:17.076Z,-2.50
2023-01-22T02:26:45.939Z,-2.50
2023-01-22T02:29:18.004Z,-2.50
2023-01-22T02:31:45.612Z,-1.30
2023-01-22T02:34:14.270Z,-2.60
2023-01-22T02:36:45.679Z,-2.60
2023-01-22T02:39:13.141Z,-2.60
2023-01-22T02:41:40.731Z,-2.60
2023-01-22T02:44:11.194Z,-2.60
2023-01-22T02:46:38.795Z,-2.70
2023-01-22T02:49:06.561Z,-2.60
2023-01-22T02:51:35.513Z,-2.60
2023-01-22T02:54:03.111Z,-2.60
2023-01-22T02:56:30.887Z,-2.70
2023-01-22T02:59:02.130Z,-2.70
2023-01-22T03:01:29.917Z,-2.70
2023-01-22T03:04:13.604Z,-2.70
2023-01-22T03:06:44.546Z,-0.50
2023-01-22T03:09:14.663Z,-2.70
2023-01-22T03:11:43.868Z,-2.70
2023-01-22T03:14:34.519Z,-2.70
2023-01-22T03:17:20.926Z,-2.80
2023-01-22T03:20:07.062Z,-2.80
2023-01-22T03:22:34.996Z,-2.90
2023-01-22T03:25:02.902Z,-2.90
2023-01-22T03:27:31.659Z,-2.90
2023-01-22T03:29:59.430Z,-2.30
2023-01-22T03:32:27.450Z,-2.90
2023-01-22T03:34:55.764Z,-2.90
2023-01-22T03:37:24.727Z,-3.00
2023-01-22T03:39:54.843Z,-3.00
2023-01-22T03:42:30.976Z,-3.00
2023-01-22T03:44:58.563Z,-3.00
2023-01-22T03:47:27.287Z,-2.90
2023-01-22T03:49:54.858Z,-2.90
2023-01-22T03:52:22.479Z,-2.90
2023-01-22T03:54:50.025Z,-2.90
2023-01-22T03:57:18.065Z,-2.90
2023-01-22T03:59:45.732Z,-2.90
2023-01-22T04:02:13.354Z,-2.90
2023-01-22T04:04:54.312Z,-2.90
2023-01-22T04:07:21.839Z,-2.90
2023-01-22T04:09:52.687Z,-2.90
2023-01-22T04:12:20.273Z,-2.90
2023-01-22T04:14:47.809Z,-2.90
2023-01-22T04:17:15.592Z,-3.00
2023-01-22T04:20:09.267Z,-3.00
2023-01-22T04:22:56.189Z,-3.00
2023-01-22T04:25:24.079Z,-3.00
2023-01-22T04:27:51.767Z,-3.00
2023-01-22T04:30:20.411Z,-3.00
2023-01-22T04:32:51.901Z,-3.00
2023-01-22T04:35:42.427Z,-3.10
2023-01-22T04:38:11.656Z,-3.00
2023-01-22T04:40:39.451Z,-3.10
2023-01-22T04:43:07.760Z,-3.00
2023-01-22T04:45:35.645Z,-3.00
2023-01-22T04:48:03.392Z,-3.00
2023-01-22T04:50:33.153Z,-3.00
2023-01-22T04:53:01.348Z,-3.00
2023-01-22T04:55:29.331Z,-3.00
2023-01-22T04:58:02.622Z,-3.10
2023-01-22T05:00:30.749Z,-3.00
2023-01-22T05:03:01.735Z,-3.00
2023-01-22T05:05:31.404Z,-3.10
2023-01-22T05:07:59.974Z,-3.10
2023-01-22T05:10:29.163Z,-3.10
2023-01-22T05:12:57.553Z,-3.10
2023-01-22T05:15:26.536Z,-3.10
2023-01-22T05:18:04.838Z,-3.10
2023-01-22T05:20:35.789Z,-3.00
2023-01-22T05:23:03.234Z,-3.00
2023-01-22T05:25:32.063Z,-3.10
2023-01-22T05:28:00.175Z,-3.00
2023-01-22T05:30:49.151Z,-3.10
2023-01-22T05:33:28.851Z,-3.10
2023-01-22T05:35:58.706Z,-2.90
2023-01-22T05:38:28.135Z,-3.10
2023-01-22T05:40:56.315Z,-3.10
2023-01-22T05:43:24.019Z,-3.10
2023-01-22T05:46:02.974Z,-3.10
2023-01-22T05:49:03.271Z,-3.10
2023-01-22T05:51:33.097Z,-3.10
2023-01-22T05:54:00.727Z,-3.20
2023-01-22T05:56:31.806Z,-3.20
2023-01-22T05:58:59.590Z,-3.20
2023-01-22T06:01:27.763Z,-3.20
2023-01-22T06:03:58.034Z,-2.80
2023-01-22T06:06:26.696Z,-3.30
2023-01-22T06:08:55.937Z,-3.20
2023-01-22T06:11:28.278Z,-3.30
2023-01-22T06:13:55.793Z,-2.60
2023-01-22T06:16:23.696Z,-3.30
2023-01-22T06:18:56.664Z,-3.70
2023-01-22T06:21:27.613Z,-3.30
2023-01-22T06:23:55.875Z,-3.30
2023-01-22T06:26:23.537Z,-3.40
2023-01-22T06:28:51.035Z,-3.30
2023-01-22T06:31:18.573Z,-3.30
2023-01-22T06:33:46.584Z,-3.30
2023-01-22T06:36:15.798Z,-3.40
2023-01-22T06:38:43.747Z,-3.30
2023-01-22T06:41:15.689Z,-3.40
2023-01-22T06:43:45.202Z,-3.40
2023-01-22T06:46:12.845Z,-3.30
2023-01-22T06:49:02.639Z,-3.40
2023-01-22T06:51:30.851Z,-3.40
2023-01-22T06:53:59.594Z,-3.40
2023-01-22T06:56:28.240Z,-3.40
2023-01-22T06:58:57.637Z,-3.40
2023-01-22T07:01:26.086Z,-3.40
2023-01-22T07:03:53.770Z,-3.40
2023-01-22T07:06:21.423Z,-3.40
2023-01-22T07:08:49.255Z,-3.40
2023-01-22T07:11:16.683Z,-3.40
2023-01-22T07:13:44.169Z,-3.40
2023-01-22T07:16:12.773Z,-3.40
2023-01-22T07:18:40.270Z,-3.40
2023-01-22T07:21:07.809Z,-3.40
2023-01-22T07:23:35.387Z,-3.50
2023-01-22T07:26:02.868Z,-3.40
2023-01-22T07:28:30.381Z,-3.50
2023-01-22T07:30:57.991Z,-3.50
2023-01-22T07:33:25.628Z,-3.50
2023-01-22T07:35:56.934Z,-3.40
2023-01-22T07:38:27.359Z,-3.50
2023-01-22T07:41:00.107Z,-3.50
2023-01-22T07:43:27.910Z,-3.60
2023-01-22T07:45:57.934Z,-3.60
2023-01-22T07:48:25.428Z,-3.60
2023-01-22T07:50:52.947Z,-3.70
2023-01-22T07:53:20.521Z,-3.70
2023-01-22T07:55:47.977Z,-3.60
2023-01-22T07:58:15.482Z,-3.70
2023-01-22T08:00:42.968Z,-3.70
2023-01-22T08:03:10.620Z,-2.60
2023-01-22T08:05:42.652Z,-3.70
2023-01-22T08:08:22.821Z,-2.30
2023-01-22T08:10:50.304Z,-3.60
2023-01-22T08:13:17.740Z,-3.60
2023-01-22T08:15:45.744Z,-3.60
2023-01-22T08:18:13.259Z,-3.60
2023-01-22T08:20:40.677Z,-3.60
2023-01-22T08:23:08.105Z,-3.60
2023-01-22T08:25:35.664Z,-3.60
2023-01-22T08:28:05.009Z,-3.60
2023-01-22T08:30:45.211Z,-3.60
2023-01-22T08:33:15.579Z,-3.60
2023-01-22T08:35:43.225Z,-3.60
2023-01-22T08:38:13.401Z,-3.60
2023-01-22T08:40:41.055Z,-3.60
2023-01-22T08:43:12.749Z,-1.80
2023-01-22T08:45:40.371Z,-3.50
2023-01-22T08:48:07.912Z,-3.40
2023-01-22T08:50:35.427Z,-3.40
2023-01-22T08:53:02.921Z,-3.40
2023-01-22T08:55:30.433Z,-3.40
2023-01-22T08:57:58.316Z,-2.40
2023-01-22T09:00:27.376Z,-3.30
2023-01-22T09:02:59.739Z,-3.20
2023-01-22T09:05:28.441Z,-3.20
2023-01-22T09:07:56.001Z,-3.20
2023-01-22T09:10:25.859Z,-3.10
2023-01-22T09:12:53.446Z,-3.10
2023-01-22T09:15:20.952Z,-3.10
2023-01-22T09:17:48.502Z,-3.00
2023-01-22T09:20:16.736Z,-3.00
2023-01-22T09:22:45.816Z,-2.90
2023-01-22T09:25:13.572Z,-2.90
2023-01-22T09:27:41.072Z,-2.90
2023-01-22T09:30:14.462Z,-2.80
2023-01-22T09:32:42.047Z,-2.80
2023-01-22T09:35:10.031Z,-2.70
2023-01-22T09:37:37.406Z,-2.70
2023-01-22T09:40:05.287Z,-2.60
2023-01-22T09:42:34.877Z,-2.50
2023-01-22T09:45:07.128Z,-2.50
2023-01-22T09:47:50.067Z,-2.50
2023-01-22T09:50:26.783Z,-2.40
2023-01-22T09:52:57.905Z,-2.40
2023-01-22T09:55:30.339Z,-2.30
2023-01-22T09:58:02.813Z,-2.30
2023-01-22T10:00:40.732Z,-2.30
2023-01-22T10:03:24.813Z,-2.20
2023-01-22T10:05:57.871Z,-2.20
2023-01-22T10:08:33.703Z,-2.20
2023-01-22T10:11:01.597Z,-2.10
2023-01-22T10:13:32.475Z,-2.10
2023-01-22T10:16:01.438Z,-2.00
2023-01-22T10:18:56.543Z,-2.00
2023-01-22T10:21:30.616Z,-2.00
2023-01-22T10:23:59.317Z,-0.10
2023-01-22T10:26:47.997Z,-1.90
2023-01-22T10:29:22.654Z,-1.70
2023-01-22T10:31:56.102Z,-1.70
2023-01-22T10:34:30.301Z,-1.60
2023-01-22T10:37:02.867Z,-1.60
2023-01-22T10:39:44.866Z,-1.40
2023-01-22T10:42:23.765Z,-1.30
2023-01-22T10:44:56.586Z,-1.20
2023-01-22T10:47:27.443Z,-1.00
2023-01-22T10:50:15.426Z,-0.90
2023-01-22T10:52:53.641Z,-0.80
2023-01-22T10:55:22.399Z,-0.60
2023-01-22T10:57:58.591Z,-0.50
2023-01-22T11:00:50.293Z,-0.30
2023-01-22T11:03:24.256Z,-0.20
2023-01-22T11:05:58.790Z,-0.10
2023-01-22T11:08:30.873Z,0.00
2023-01-22T11:11:02.873Z,0.00
2023-01-22T11:13:41.992Z,0.00
2023-01-22T11:16:21.170Z,0.10
2023-01-22T11:19:05.299Z,0.10
2023-01-22T11:21:40.643Z,0.20
2023-01-22T11:24:28.026Z,0.80
2023-01-22T11:27:20.355Z,0.30
2023-01-22T11:30:06.044Z,0.30
2023-01-22T11:32:59.205Z,0.40
2023-01-22T11:35:29.655Z,0.50
2023-01-22T11:38:14.919Z,0.50
2023-01-22T11:40:59.755Z,0.50
2023-01-22T11:43:40.446Z,0.60
2023-01-22T11:46:41.997Z,0.60
2023-01-22T11:49:25.371Z,0.70
2023-01-22T11:52:23.043Z,0.80
2023-01-22T11:54:56.417Z,0.90
2023-01-22T11:57:27.337Z,0.90
2023-01-22T12:00:18.229Z,1.00
2023-01-22T12:03:13.459Z,1.00
2023-01-22T12:06:12.781Z,1.10
2023-01-22T12:09:01.652Z,1.20
2023-01-22T12:11:57.271Z,1.20
2023-01-22T12:14:38.178Z,1.20
2023-01-22T12:17:35.877Z,1.30
2023-01-22T12:20:21.519Z,1.40
2023-01-22T12:23:24.553Z,1.40
2023-01-22T12:26:04.222Z,1.60
2023-01-22T12:28:56.348Z,1.60
2023-01-22T12:31:38.164Z,1.70
2023-01-22T12:34:25.540Z,1.80
2023-01-22T12:36:55.273Z,1.90
2023-01-22T12:39:28.178Z,1.90
2023-01-22T12:42:08.387Z,2.00
2023-01-22T12:44:48.014Z,2.10
2023-01-22T12:47:43.494Z,2.10
2023-01-22T12:50:22.664Z,2.20
2023-01-22T12:53:06.131Z,2.20
2023-01-22T12:55:43.949Z,2.30
2023-01-22T12:58:28.511Z,2.30
2023-01-22T13:01:11.412Z,2.40
2023-01-22T13:03:41.311Z,2.40
2023-01-22T13:06:35.293Z,2.40
2023-01-22T13:09:05.264Z,2.40
2023-01-22T13:11:38.212Z,2.40
2023-01-22T13:14:22.874Z,2.50
2023-01-22T13:17:00.029Z,2.50
2023-01-22T13:19:32.212Z,3.00
2023-01-22T13:22:00.842Z,2.60
2023-01-22T13:24:28.634Z,2.70
2023-01-22T13:27:00.032Z,2.60
2023-01-22T13:29:37.538Z,2.70
2023-01-22T13:32:16.374Z,2.70
2023-01-22T13:34:43.841Z,2.70
2023-01-22T13:37:28.223Z,3.50
2023-01-22T13:39:55.764Z,2.80
2023-01-22T13:42:24.695Z,2.70
2023-01-22T13:44:52.568Z,2.70
2023-01-22T13:47:32.728Z,2.70
2023-01-22T13:50:01.749Z,4.10
2023-01-22T13:52:29.386Z,3.30
2023-01-22T13:54:59.892Z,2.70
2023-01-22T13:57:27.348Z,2.80
2023-01-22T14:00:00.055Z,2.90
2023-01-22T14:02:37.092Z,2.70
2023-01-22T14:05:16.416Z,2.70
2023-01-22T14:07:44.167Z,2.80
2023-01-22T14:10:13.662Z,2.80
2023-01-22T14:12:41.375Z,2.80
2023-01-22T14:15:20.155Z,2.80
2023-01-22T14:17:49.806Z,2.80
2023-01-22T14:20:18.768Z,2.80
2023-01-22T14:22:47.269Z,2.80
2023-01-22T14:25:14.740Z,2.70
2023-01-22T14:27:45.251Z,2.70
2023-01-22T14:30:16.213Z,3.90
2023-01-22T14:32:45.255Z,2.70
2023-01-22T14:35:24.414Z,2.70
2023-01-22T14:37:52.442Z,2.90
2023-01-22T14:40:21.862Z,2.60
2023-01-22T14:42:49.757Z,2.60
2023-01-22T14:45:19.197Z,2.60
2023-01-22T14:47:51.725Z,2.60
2023-01-22T14:50:20.295Z,3.80
2023-01-22T14:52:48.580Z,4.80
2023-01-22T14:55:16.282Z,2.50
2023-01-22T14:57:43.975Z,2.50
2023-01-22T15:00:17.313Z,2.50
2023-01-22T15:02:45.338Z,2.50
2023-01-22T15:05:12.821Z,2.50
2023-01-22T15:07:40.652Z,2.50
2023-01-22T15:10:09.168Z,3.60
2023-01-22T15:12:36.636Z,2.40
2023-01-22T15:15:05.018Z,2.40
2023-01-22T15:17:32.462Z,2.30
2023-01-22T15:20:00.240Z,2.30
2023-01-22T15:22:28.490Z,3.80
2023-01-22T15:24:55.903Z,2.10
2023-01-22T15:27:23.503Z,2.00
2023-01-22T15:29:50.907Z,3.00
2023-01-22T15:32:18.401Z,1.90
2023-01-22T15:34:45.904Z,1.80
2023-01-22T15:37:14.842Z,1.70
2023-01-22T15:39:42.411Z,1.60
2023-01-22T15:42:09.892Z,2.80
2023-01-22T15:44:38.585Z,1.60
2023-01-22T15:47:06.394Z,1.50
2023-01-22T15:49:34.803Z,2.40
2023-01-22T15:52:03.425Z,1.40
2023-01-22T15:54:30.911Z,1.40
2023-01-22T15:56:58.390Z,1.30
2023-01-22T15:59:25.810Z,1.30
2023-01-22T16:01:53.433Z,1.20
2023-01-22T16:04:20.884Z,1.10
2023-01-22T16:06:48.451Z,1.00
2023-01-22T16:09:15.909Z,0.90
2023-01-22T16:11:43.386Z,0.80
2023-01-22T16:14:10.942Z,0.70
2023-01-22T16:16:38.876Z,1.70
2023-01-22T16:19:07.329Z,0.60
2023-01-22T16:21:35.467Z,0.30
2023-01-22T16:24:03.465Z,0.40
2023-01-22T16:26:33.378Z,0.40
2023-01-22T16:29:05.534Z,0.30
2023-01-22T16:31:35.132Z,-0.40
2023-01-22T16:34:11.912Z,0.30
2023-01-22T16:36:40.385Z,0.30
2023-01-22T16:39:08.764Z,0.40
2023-01-22T16:41:37.362Z,1.20
2023-01-22T16:44:13.259Z,0.40
2023-01-22T16:46:44.000Z,0.90
2023-01-22T16:49:20.704Z,1.60
2023-01-22T16:51:51.117Z,0.40
2023-01-22T16:54:24.119Z,0.40
2023-01-22T16:56:51.792Z,0.40
2023-01-22T16:59:19.358Z,0.30
2023-01-22T17:01:46.926Z,0.30
2023-01-22T17:04:14.906Z,0.20
2023-01-22T17:06:45.074Z,0.10
2023-01-22T17:09:16.548Z,0.10
2023-01-22T17:11:51.178Z,0.00
2023-01-22T17:14:20.993Z,-0.10
2023-01-22T17:16:49.007Z,-0.20
2023-01-22T17:19:16.772Z,-0.20
2023-01-22T17:21:44.535Z,-0.30
2023-01-22T17:24:13.117Z,-0.30
2023-01-22T17:26:42.137Z,-0.30
2023-01-22T17:29:10.063Z,-0.40
2023-01-22T17:31:37.619Z,-0.50
2023-01-22T17:34:12.850Z,-0.50
2023-01-22T17:36:43.961Z,-0.60
2023-01-22T17:39:15.991Z,-0.40
2023-01-22T17:41:44.827Z,0.90
2023-01-22T17:44:13.032Z,-0.80
2023-01-22T17:46:40.651Z,-0.80
2023-01-22T17:49:08.126Z,-0.80
2023-01-22T17:51:35.697Z,-0.90
2023-01-22T17:54:04.214Z,-0.90
2023-01-22T17:56:37.103Z,-0.90
2023-01-22T17:59:07.549Z,-1.00
2023-01-22T18:01:36.762Z,-1.00
2023-01-22T18:04:06.689Z,-1.00
2023-01-22T18:06:35.036Z,-1.10
2023-01-22T18:09:05.080Z,-1.00
2023-01-22T18:11:33.981Z,-1.10
2023-01-22T18:14:05.703Z,-1.10
2023-01-22T18:16:35.811Z,-1.20
2023-01-22T18:19:05.942Z,-1.20
2023-01-22T18:21:35.031Z,-1.20
2023-01-22T18:24:03.975Z,-1.20
2023-01-22T18:26:32.322Z,-1.30
2023-01-22T18:29:00.200Z,-1.40
2023-01-22T18:31:29.315Z,-1.30
2023-01-22T18:34:01.315Z,-1.40
2023-01-22T18:36:32.231Z,-1.30
2023-01-22T18:39:01.500Z,-1.40
2023-01-22T18:41:29.308Z,-1.30
2023-01-22T18:43:59.727Z,-1.30
2023-01-22T18:46:30.216Z,-1.30
2023-01-22T18:49:02.411Z,-1.30
2023-01-22T18:51:31.509Z,-1.30
2023-01-22T18:53:59.420Z,-1.40
2023-01-22T18:56:26.826Z,-1.40
2023-01-22T18:58:55.241Z,-1.40
2023-01-22T19:01:30.217Z,-1.40
2023-01-22T19:04:02.279Z,-0.50
2023-01-22T19:06:32.049Z,-1.40
2023-01-22T19:09:06.315Z,-1.40
2023-01-22T19:11:38.336Z,-1.50
2023-01-22T19:14:07.256Z,-1.50
2023-01-22T19:16:36.100Z,-1.50
2023-01-22T19:19:11.016Z,-1.50
2023-01-22T19:21:46.697Z,-1.60
2023-01-22T19:24:16.400Z,-1.60
2023-01-22T19:26:46.395Z,0.20
2023-01-22T19:29:19.685Z,-1.60
2023-01-22T19:31:51.873Z,-0.10
2023-01-22T19:34:24.793Z,-1.70
2023-01-22T19:36:55.229Z,-1.70
2023-01-22T19:39:25.302Z,-1.70
2023-01-22T19:41:54.083Z,-1.70
2023-01-22T19:44:21.873Z,0.10
2023-01-22T19:46:49.452Z,-1.80
2023-01-22T19:49:17.112Z,-0.20
2023-01-22T19:51:44.806Z,-0.60
2023-01-22T19:54:12.523Z,-1.80
2023-01-22T19:56:45.525Z,-1.70
2023-01-22T19:59:19.351Z,-1.80
2023-01-22T20:01:48.623Z,-1.70
2023-01-22T20:04:23.882Z,-1.80
2023-01-22T20:07:03.136Z,-1.80
2023-01-22T20:09:33.398Z,-1.80
2023-01-22T20:12:01.174Z,-1.80
2023-01-22T20:14:34.203Z,-1.90
2023-01-22T20:17:02.539Z,-1.90
2023-01-22T20:19:30.855Z,-1.90
2023-01-22T20:21:59.510Z,-1.90
2023-01-22T20:24:28.188Z,-1.90
2023-01-22T20:26:58.019Z,-1.90
2023-01-22T20:29:25.801Z,-1.90
2023-01-22T20:31:53.759Z,-1.90
2023-01-22T20:34:21.132Z,-1.90
2023-01-22T20:36:48.993Z,-0.80
2023-01-22T20:39:16.657Z,-1.90
2023-01-22T20:41:45.730Z,-2.00
2023-01-22T20:44:13.985Z,-2.00
2023-01-22T20:46:44.267Z,-2.00
2023-01-22T20:49:12.590Z,-2.00
2023-01-22T20:51:41.880Z,-2.00
2023-01-22T20:54:09.897Z,-2.00
2023-01-22T20:56:37.414Z,-2.00
2023-01-22T20:59:07.932Z,-2.10
2023-01-22T21:01:36.120Z,-2.10
2023-01-22T21:04:04.643Z,-2.10
2023-01-22T21:06:34.491Z,-2.10
2023-01-22T21:09:03.411Z,-2.10
2023-01-22T21:11:34.275Z,-2.10
2023-01-22T21:14:05.059Z,-2.10
2023-01-22T21:16:35.838Z,0.00
2023-01-22T21:19:06.631Z,-2.10
2023-01-22T21:21:35.575Z,-2.10
2023-01-22T21:24:03.640Z,-2.00
2023-01-22T21:26:31.997Z,-2.20
2023-01-22T21:29:02.458Z,-2.20
2023-01-22T21:31:31.114Z,-2.20
2023-01-22T21:34:03.235Z,-2.30
2023-01-22T21:36:34.813Z,-2.30
2023-01-22T21:39:04.140Z,-2.30
2023-01-22T21:41:31.633Z,-2.30
2023-01-22T21:44:18.251Z,-1.00
2023-01-22T21:46:46.990Z,-2.40
2023-01-22T21:49:22.569Z,-2.50
2023-01-22T21:52:02.288Z,-2.40
2023-01-22T21:54:33.738Z,-2.50
2023-01-22T21:57:01.938Z,-2.50
2023-01-22T21:59:29.716Z,-2.50
2023-01-22T22:01:57.527Z,-2.50
2023-01-22T22:04:26.828Z,-2.70
2023-01-22T22:06:54.528Z,-2.60
2023-01-22T22:09:24.657Z,-2.70
2023-01-22T22:11:55.715Z,-2.70
2023-01-22T22:14:24.374Z,-2.70
2023-01-22T22:16:52.317Z,-2.80
2023-01-22T22:19:20.765Z,-2.70
2023-01-22T22:21:50.589Z,-2.80
2023-01-22T22:24:19.273Z,-2.80
2023-01-22T22:26:47.012Z,-2.80
2023-01-22T22:29:14.497Z,-2.80
2023-01-22T22:31:41.995Z,-2.80
2023-01-22T22:34:09.505Z,-2.80
2023-01-22T22:36:37.130Z,-2.80
2023-01-22T22:39:06.446Z,-2.90
2023-01-22T22:41:36.868Z,-2.90
2023-01-22T22:44:05.704Z,-2.90
2023-01-22T22:46:36.553Z,-2.90
2023-01-22T22:49:05.243Z,-2.90
2023-01-22T22:51:38.044Z,-2.90
2023-01-22T22:54:08.143Z,-2.90
2023-01-22T22:56:35.733Z,-2.90
2023-01-22T22:59:04.267Z,-3.00
2023-01-22T23:01:33.147Z,-3.00
2023-01-22T23:04:02.511Z,-3.00
2023-01-22T23:06:33.062Z,-2.90
2023-01-22T23:09:12.227Z,-3.00
2023-01-22T23:11:39.994Z,-3.00
2023-01-22T23:14:08.670Z,-3.00
2023-01-22T23:16:38.607Z,-3.00
2023-01-22T23:19:08.923Z,-3.00
2023-01-22T23:21:40.636Z,-3.00
2023-01-22T23:24:10.318Z,-3.00
2023-01-22T23:26:38.956Z,-2.30
2023-01-22T23:29:09.638Z,-3.10
2023-01-22T23:31:38.401Z,-3.10
2023-01-22T23:34:09.115Z,-3.10
2023-01-22T23:36:36.885Z,-3.20
2023-01-22T23:39:04.557Z,-3.20
2023-01-22T23:41:32.556Z,-3.20
2023-01-22T23:43:59.998Z,-3.20
2023-01-22T23:46:29.023Z,-1.40
2023-01-22T23:48:58.935Z,-3.20
2023-01-22T23:51:27.156Z,-3.20
2023-01-22T23:53:54.856Z,-3.30
2023-01-22T23:56:26.938Z,-3.30
2023-01-22T23:58:56.012Z,-3.30
